Terminal Aerodrome Forecast
Issued by NWS

Home | Current Version | Previous Version | Text Only | Print | Product List | Glossary On
Versions: 1 2 3 4 5 6 7 8 9 10 11 12 13 14 15 16 17
032
FTUS46 KSEW 211742
TAFBFI
TAF
KBFI 211742Z 2118/2218 VRB04KT P6SM SCT120 SCT200
     FM212000 16004KT P6SM BKN080 OVC120
     FM220000 17006KT P6SM SCT045 OVC070
     FM220300 VRB04KT P6SM VCSH SCT035 OVC050
      TEMPO 2204/2208 6SM -SN BR OVC035
     FM221500 36005KT P6SM SCT060 BKN120 BKN200=

USA.gov is the U.S. government's official web portal to all federal, state and local government web resources and services.